createdAt,value
2022-09-16T00:00:02.185Z,1.67
2022-09-16T00:05:08.589Z,1.80
2022-09-16T00:10:11.458Z,1.80
2022-09-16T00:15:14.394Z,1.80
2022-09-16T00:20:17.225Z,1.67
2022-09-16T00:25:19.815Z,1.40
2022-09-16T00:30:22.460Z,1.70
2022-09-16T00:35:25.067Z,1.70
2022-09-16T00:40:28.145Z,1.50
2022-09-16T00:45:31.941Z,1.40
2022-09-16T00:51:01.901Z,1.70
2022-09-16T00:56:09.590Z,1.40
2022-09-16T01:01:12.190Z,1.50
2022-09-16T01:06:17.967Z,1.87
2022-09-16T01:11:20.605Z,1.40
2022-09-16T01:16:25.939Z,1.80
2022-09-16T01:21:40.048Z,1.70
2022-09-16T01:27:08.725Z,1.70
2022-09-16T01:32:58.705Z,1.60
2022-09-16T01:38:09.828Z,1.77
2022-09-16T01:43:15.108Z,1.70
2022-09-16T01:48:29.325Z,1.50
2022-09-16T01:53:57.200Z,1.50
2022-09-16T01:59:04.997Z,1.57
2022-09-16T02:04:14.775Z,1.43
2022-09-16T02:09:25.410Z,1.67
2022-09-16T02:14:31.922Z,1.60
2022-09-16T02:19:43.018Z,1.60
2022-09-16T02:24:47.742Z,1.67
2022-09-16T02:29:57.725Z,1.40
2022-09-16T02:35:02.154Z,1.43
2022-09-16T02:40:12.043Z,1.80
2022-09-16T02:45:14.777Z,1.80
2022-09-16T02:50:32.785Z,1.77
2022-09-16T02:55:49.826Z,1.60
2022-09-16T03:00:55.252Z,1.80
2022-09-16T03:06:15.218Z,1.60
2022-09-16T03:11:35.956Z,1.70
2022-09-16T03:17:05.087Z,1.70
2022-09-16T03:22:30.784Z,1.53
2022-09-16T03:27:42.642Z,1.53
2022-09-16T03:32:52.029Z,1.73
2022-09-16T03:37:59.323Z,1.53
2022-09-16T03:43:11.621Z,1.97
2022-09-16T03:48:14.327Z,1.53
2022-09-16T03:53:16.886Z,1.67
2022-09-16T03:58:19.485Z,1.30
2022-09-16T04:03:22.081Z,1.67
2022-09-16T04:08:24.616Z,1.80
2022-09-16T04:13:29.450Z,1.60
2022-09-16T04:18:32.879Z,1.27
2022-09-16T04:23:35.653Z,1.37
2022-09-16T04:28:38.351Z,1.10
2022-09-16T04:33:41.730Z,1.40
2022-09-16T04:38:45.582Z,1.37
2022-09-16T04:43:52.921Z,1.47
2022-09-16T04:48:56.885Z,1.20
2022-09-16T04:54:01.482Z,1.40
2022-09-16T04:59:06.016Z,1.40
2022-09-16T05:04:09.950Z,1.17
2022-09-16T05:09:13.567Z,1.17
2022-09-16T05:14:18.243Z,1.57
2022-09-16T05:19:20.770Z,1.40
2022-09-16T05:24:23.454Z,1.63
2022-09-16T05:29:26.057Z,1.43
2022-09-16T05:34:28.773Z,1.97
2022-09-16T05:39:31.434Z,1.90
2022-09-16T05:44:33.947Z,1.50
2022-09-16T05:49:37.050Z,1.53
2022-09-16T05:54:39.578Z,1.70
2022-09-16T05:59:42.207Z,1.90
2022-09-16T06:04:44.743Z,2.00
2022-09-16T06:09:47.482Z,1.93
2022-09-16T06:14:50.092Z,2.00
2022-09-16T06:19:52.609Z,1.77
2022-09-16T06:24:55.263Z,1.70
2022-09-16T06:29:57.818Z,1.73
2022-09-16T06:35:00.479Z,1.50
2022-09-16T06:40:03.265Z,1.53
2022-09-16T06:45:06.588Z,1.63
2022-09-16T06:50:09.595Z,1.60
2022-09-16T06:55:12.571Z,1.40
2022-09-16T07:00:15.489Z,1.50
2022-09-16T07:05:18.082Z,1.50
2022-09-16T07:10:25.244Z,1.70
2022-09-16T07:15:27.809Z,1.80
2022-09-16T07:20:30.980Z,1.40
2022-09-16T07:25:35.870Z,1.17
2022-09-16T07:30:38.647Z,1.33
2022-09-16T07:35:41.299Z,1.17
2022-09-16T07:40:43.935Z,2.00
2022-09-16T07:45:46.723Z,1.50
2022-09-16T07:51:00.800Z,1.30
2022-09-16T07:56:15.095Z,1.33
2022-09-16T08:01:18.315Z,1.33
2022-09-16T08:06:23.918Z,1.27
2022-09-16T08:11:27.657Z,2.10
2022-09-16T08:16:30.344Z,2.43
2022-09-16T08:21:32.878Z,1.30
2022-09-16T08:26:35.902Z,1.60
2022-09-16T08:31:38.867Z,1.60
2022-09-16T08:36:41.550Z,1.10
2022-09-16T08:41:55.124Z,1.47
2022-09-16T08:47:35.244Z,1.40
2022-09-16T08:52:39.410Z,1.33
2022-09-16T08:58:10.654Z,1.00
2022-09-16T09:03:16.297Z,0.90
2022-09-16T09:08:28.213Z,1.20
2022-09-16T09:13:58.113Z,1.30
2022-09-16T09:19:08.166Z,0.80
2022-09-16T09:24:43.815Z,0.83
2022-09-16T09:30:23.185Z,1.00
2022-09-16T09:35:53.648Z,1.10
2022-09-16T09:41:00.870Z,1.00
2022-09-16T09:46:25.006Z,1.00
2022-09-16T09:52:00.033Z,0.80
2022-09-16T09:57:19.204Z,1.00
2022-09-16T10:02:22.765Z,1.00
2022-09-16T10:07:26.951Z,1.10
2022-09-16T10:12:34.975Z,1.00
2022-09-16T10:17:37.735Z,1.03
2022-09-16T10:22:40.297Z,1.00
2022-09-16T10:27:42.980Z,0.73
2022-09-16T10:32:47.130Z,1.20
2022-09-16T10:37:56.163Z,0.80
2022-09-16T10:43:04.360Z,0.97
2022-09-16T10:48:13.933Z,1.17
2022-09-16T10:53:45.861Z,0.77
2022-09-16T10:58:48.716Z,1.10
2022-09-16T11:04:19.996Z,0.77
2022-09-16T11:10:04.081Z,0.97
2022-09-16T11:15:15.777Z,1.20
2022-09-16T11:20:44.421Z,4.40
2022-09-16T11:26:17.619Z,2.67
2022-09-16T11:31:57.955Z,1.73
2022-09-16T11:37:27.354Z,1.30
2022-09-16T11:42:37.130Z,1.00
2022-09-16T11:47:48.623Z,0.90
2022-09-16T11:53:05.374Z,1.00
2022-09-16T11:58:44.060Z,0.67
2022-09-16T12:03:54.744Z,0.80
2022-09-16T12:09:13.198Z,0.87
2022-09-16T12:14:20.303Z,0.90
2022-09-16T12:20:05.879Z,0.77
2022-09-16T12:25:27.098Z,0.60
2022-09-16T12:30:49.214Z,0.47
2022-09-16T12:35:59.684Z,0.70
2022-09-16T12:41:28.733Z,0.80
2022-09-16T12:46:57.787Z,0.80
2022-09-16T12:52:23.435Z,0.43
2022-09-16T12:57:43.986Z,0.57
2022-09-16T13:02:49.467Z,0.90
2022-09-16T13:07:55.110Z,0.90
2022-09-16T13:13:00.894Z,1.10
2022-09-16T13:18:18.669Z,0.70
2022-09-16T13:23:26.069Z,0.63
2022-09-16T13:28:38.044Z,0.60
2022-09-16T13:33:43.888Z,0.60
2022-09-16T13:38:51.630Z,0.70
2022-09-16T13:43:54.239Z,0.50
2022-09-16T13:49:10.984Z,0.87
2022-09-16T13:54:28.967Z,0.90
2022-09-16T14:00:04.233Z,0.80
2022-09-16T14:05:15.454Z,0.80
2022-09-16T14:10:40.961Z,0.80
2022-09-16T14:15:50.389Z,1.10
2022-09-16T14:21:19.902Z,1.60
2022-09-16T14:26:24.178Z,0.97
2022-09-16T14:31:31.680Z,0.50
2022-09-16T14:36:38.676Z,0.50
2022-09-16T14:41:54.414Z,1.10
2022-09-16T14:47:08.771Z,0.60
2022-09-16T14:52:25.593Z,1.00
2022-09-16T14:57:30.122Z,1.10
2022-09-16T15:02:35.498Z,0.90
2022-09-16T15:07:56.181Z,0.73
2022-09-16T15:13:10.205Z,0.90
2022-09-16T15:18:19.607Z,0.60
2022-09-16T15:23:28.364Z,0.77
2022-09-16T15:28:30.953Z,0.80
2022-09-16T15:33:40.995Z,0.60
2022-09-16T15:38:44.797Z,0.80
2022-09-16T15:43:47.915Z,0.70
2022-09-16T15:49:01.724Z,0.80
2022-09-16T15:54:14.931Z,0.60
2022-09-16T15:59:35.063Z,0.40
2022-09-16T16:04:37.592Z,0.60
2022-09-16T16:09:42.530Z,0.67
2022-09-16T16:14:46.454Z,0.70
2022-09-16T16:19:50.374Z,0.90
2022-09-16T16:24:53.478Z,0.83
2022-09-16T16:29:56.018Z,0.90
2022-09-16T16:34:58.693Z,0.93
2022-09-16T16:40:01.449Z,0.90
2022-09-16T16:45:04.378Z,1.03
2022-09-16T16:50:07.151Z,1.07
2022-09-16T16:55:10.373Z,1.33
2022-09-16T17:00:14.333Z,2.33
2022-09-16T17:05:16.810Z,2.00
2022-09-16T17:10:19.369Z,1.87
2022-09-16T17:15:22.324Z,1.40
2022-09-16T17:20:24.931Z,1.80
2022-09-16T17:25:27.777Z,1.87
2022-09-16T17:30:30.265Z,2.27
2022-09-16T17:35:32.798Z,2.30
2022-09-16T17:40:35.417Z,1.87
2022-09-16T17:45:38.044Z,1.70
2022-09-16T17:50:40.531Z,1.30
2022-09-16T17:55:43.239Z,1.53
2022-09-16T18:00:45.778Z,1.80
2022-09-16T18:05:50.077Z,1.70
2022-09-16T18:10:53.192Z,1.93
2022-09-16T18:15:55.781Z,1.80
2022-09-16T18:20:58.449Z,2.07
2022-09-16T18:26:19.286Z,1.50
2022-09-16T18:31:25.861Z,1.60
2022-09-16T18:36:30.347Z,1.60
2022-09-16T18:41:38.112Z,1.57
2022-09-16T18:46:40.686Z,1.50
2022-09-16T18:51:51.313Z,1.80
2022-09-16T18:56:59.770Z,1.80
2022-09-16T19:02:05.335Z,1.20
2022-09-16T19:07:11.599Z,1.00
2022-09-16T19:12:14.436Z,1.27
2022-09-16T19:17:17.119Z,1.43
2022-09-16T19:22:19.722Z,1.50
2022-09-16T19:27:22.306Z,1.43
2022-09-16T19:32:24.927Z,1.20
2022-09-16T19:37:27.442Z,1.50
2022-09-16T19:42:29.938Z,1.37
2022-09-16T19:47:32.498Z,1.53
2022-09-16T19:52:37.886Z,1.30
2022-09-16T19:57:40.480Z,1.50
2022-09-16T20:02:44.961Z,1.67
2022-09-16T20:07:47.546Z,1.60
2022-09-16T20:12:56.088Z,1.80
2022-09-16T20:18:01.710Z,1.70
2022-09-16T20:23:04.232Z,1.80
2022-09-16T20:28:06.798Z,1.50
2022-09-16T20:33:09.346Z,1.70
2022-09-16T20:38:11.866Z,1.90
2022-09-16T20:43:15.356Z,1.53
2022-09-16T20:48:18.125Z,1.60
2022-09-16T20:53:20.627Z,1.33
2022-09-16T20:58:23.233Z,1.30
2022-09-16T21:03:25.774Z,1.30
2022-09-16T21:08:33.238Z,1.40
2022-09-16T21:13:36.752Z,1.50
2022-09-16T21:18:40.187Z,1.27
2022-09-16T21:23:45.014Z,1.33
2022-09-16T21:28:59.286Z,1.30
2022-09-16T21:34:04.478Z,1.43
2022-09-16T21:39:08.394Z,1.70
2022-09-16T21:44:11.586Z,1.40
2022-09-16T21:49:22.751Z,1.50
2022-09-16T21:54:26.452Z,1.70
2022-09-16T21:59:29.002Z,1.20
2022-09-16T22:04:31.556Z,1.40
2022-09-16T22:09:34.057Z,1.70
2022-09-16T22:14:37.610Z,1.13
2022-09-16T22:19:40.149Z,1.20
2022-09-16T22:24:42.696Z,1.20
2022-09-16T22:29:45.254Z,1.23
2022-09-16T22:34:48.591Z,1.43
2022-09-16T22:39:51.311Z,1.40
2022-09-16T22:44:53.901Z,1.60
2022-09-16T22:49:56.437Z,1.37
2022-09-16T22:54:58.966Z,1.50
2022-09-16T23:00:02.248Z,1.40
2022-09-16T23:05:07.226Z,1.40
2022-09-16T23:10:10.776Z,1.73
2022-09-16T23:15:13.958Z,1.50
2022-09-16T23:20:17.562Z,1.60
2022-09-16T23:25:20.081Z,1.40
2022-09-16T23:30:22.706Z,1.60
2022-09-16T23:35:25.223Z,1.50
2022-09-16T23:40:28.633Z,1.33
2022-09-16T23:45:31.218Z,1.60
2022-09-16T23:50:34.238Z,1.50
2022-09-16T23:55:44.046Z,1.77
